createdAt,value
2023-05-06T00:02:30.155Z,14.60
2023-05-06T00:05:03.590Z,14.60
2023-05-06T00:07:38.001Z,14.60
2023-05-06T00:10:13.152Z,14.50
2023-05-06T00:12:47.669Z,14.50
2023-05-06T00:15:25.008Z,14.50
2023-05-06T00:17:57.473Z,14.50
2023-05-06T00:20:31.915Z,14.50
2023-05-06T00:23:04.805Z,14.50
2023-05-06T00:25:37.404Z,14.40
2023-05-06T00:28:10.832Z,14.40
2023-05-06T00:30:47.066Z,14.40
2023-05-06T00:33:19.436Z,14.50
2023-05-06T00:35:52.869Z,14.40
2023-05-06T00:38:25.316Z,14.40
2023-05-06T00:40:58.198Z,14.40
2023-05-06T00:43:31.310Z,14.40
2023-05-06T00:46:10.917Z,14.40
2023-05-06T00:48:45.713Z,14.40
2023-05-06T00:51:18.891Z,14.40
2023-05-06T00:53:51.975Z,14.40
2023-05-06T00:56:27.030Z,14.40
2023-05-06T00:58:59.972Z,14.40
2023-05-06T01:01:35.808Z,14.40
2023-05-06T01:04:10.576Z,14.40
2023-05-06T01:06:50.374Z,14.40
2023-05-06T01:09:30.433Z,14.40
2023-05-06T01:12:13.150Z,14.40
2023-05-06T01:14:57.946Z,14.30
2023-05-06T01:17:37.050Z,14.30
2023-05-06T01:20:14.096Z,14.40
2023-05-06T01:22:49.397Z,14.40
2023-05-06T01:25:25.132Z,14.30
2023-05-06T01:27:57.998Z,14.40
2023-05-06T01:30:38.447Z,14.40
2023-05-06T01:33:19.233Z,14.40
2023-05-06T01:36:00.418Z,14.40
2023-05-06T01:38:42.100Z,14.50
2023-05-06T01:41:19.172Z,14.50
2023-05-06T01:43:55.022Z,14.50
2023-05-06T01:46:30.485Z,14.50
2023-05-06T01:49:07.826Z,14.60
2023-05-06T01:51:40.067Z,14.50
2023-05-06T01:54:14.742Z,14.60
2023-05-06T01:56:49.974Z,14.60
2023-05-06T01:59:22.175Z,14.50
2023-05-06T02:01:54.529Z,14.50
2023-05-06T02:04:29.039Z,14.50
2023-05-06T02:07:02.192Z,14.50
2023-05-06T02:09:35.003Z,14.50
2023-05-06T02:12:09.842Z,14.50
2023-05-06T02:14:44.315Z,14.50
2023-05-06T02:17:17.200Z,14.50
2023-05-06T02:19:50.014Z,14.50
2023-05-06T02:22:22.964Z,14.50
2023-05-06T02:24:55.575Z,14.50
2023-05-06T02:27:31.205Z,14.50
2023-05-06T02:30:04.671Z,14.50
2023-05-06T02:32:37.504Z,14.50
2023-05-06T02:35:10.608Z,14.50
2023-05-06T02:37:43.501Z,14.50
2023-05-06T02:40:17.100Z,14.50
2023-05-06T02:42:54.335Z,14.50
2023-05-06T02:45:26.954Z,14.60
2023-05-06T02:47:59.240Z,14.50
2023-05-06T02:50:32.025Z,14.50
2023-05-06T02:53:04.460Z,14.50
2023-05-06T02:55:38.155Z,14.60
2023-05-06T02:58:13.380Z,14.60
2023-05-06T03:00:47.120Z,14.50
2023-05-06T03:03:20.117Z,14.50
2023-05-06T03:05:52.960Z,14.50
2023-05-06T03:08:25.772Z,14.50
2023-05-06T03:10:58.408Z,14.50
2023-05-06T03:13:33.446Z,14.50
2023-05-06T03:16:12.808Z,14.50
2023-05-06T03:18:46.309Z,14.50
2023-05-06T03:21:18.703Z,14.40
2023-05-06T03:23:51.423Z,14.40
2023-05-06T03:26:24.345Z,14.40
2023-05-06T03:29:00.500Z,14.40
2023-05-06T03:31:33.398Z,14.40
2023-05-06T03:34:06.832Z,14.40
2023-05-06T03:36:40.388Z,14.40
2023-05-06T03:39:13.905Z,14.30
2023-05-06T03:41:46.964Z,14.30
2023-05-06T03:44:22.871Z,14.30
2023-05-06T03:46:55.021Z,14.30
2023-05-06T03:49:27.641Z,14.30
2023-05-06T03:52:01.834Z,14.30
2023-05-06T03:54:35.848Z,14.30
2023-05-06T03:57:08.160Z,14.30
2023-05-06T03:59:44.987Z,14.20
2023-05-06T04:02:17.467Z,14.20
2023-05-06T04:04:50.134Z,14.20
2023-05-06T04:07:22.829Z,14.20
2023-05-06T04:09:54.996Z,14.20
2023-05-06T04:12:28.450Z,14.20
2023-05-06T04:15:04.461Z,14.20
2023-05-06T04:17:37.953Z,14.20
2023-05-06T04:20:12.191Z,14.20
2023-05-06T04:22:46.192Z,14.10
2023-05-06T04:25:20.667Z,14.10
2023-05-06T04:27:54.094Z,14.10
2023-05-06T04:30:30.341Z,14.10
2023-05-06T04:33:04.958Z,14.10
2023-05-06T04:35:38.079Z,14.10
2023-05-06T04:38:11.166Z,14.00
2023-05-06T04:40:45.324Z,14.00
2023-05-06T04:43:18.937Z,14.00
2023-05-06T04:45:54.497Z,13.90
2023-05-06T04:48:28.220Z,13.90
2023-05-06T04:51:01.152Z,13.90
2023-05-06T04:53:33.450Z,13.90
2023-05-06T04:56:06.994Z,13.90
2023-05-06T04:58:44.339Z,13.90
2023-05-06T05:01:19.711Z,13.90
2023-05-06T05:03:51.969Z,13.90
2023-05-06T05:06:25.013Z,13.90
2023-05-06T05:08:57.185Z,14.00
2023-05-06T05:11:29.955Z,13.90
2023-05-06T05:14:02.421Z,14.00
2023-05-06T05:16:38.539Z,14.00
2023-05-06T05:19:11.148Z,14.00
2023-05-06T05:21:43.788Z,14.10
2023-05-06T05:24:16.814Z,14.10
2023-05-06T05:26:49.335Z,14.10
2023-05-06T05:29:22.454Z,14.10
2023-05-06T05:32:01.182Z,14.10
2023-05-06T05:34:34.163Z,14.20
2023-05-06T05:37:06.560Z,14.20
2023-05-06T05:39:41.241Z,14.20
2023-05-06T05:42:15.051Z,14.20
2023-05-06T05:44:47.284Z,14.20
2023-05-06T05:47:24.390Z,14.20
2023-05-06T05:49:57.089Z,14.30
2023-05-06T05:52:29.346Z,14.30
2023-05-06T05:55:07.395Z,14.30
2023-05-06T05:57:42.235Z,14.40
2023-05-06T06:00:18.669Z,14.40
2023-05-06T06:02:54.503Z,14.50
2023-05-06T06:05:27.133Z,14.50
2023-05-06T06:08:00.690Z,14.50
2023-05-06T06:10:35.031Z,14.60
2023-05-06T06:13:07.219Z,14.60
2023-05-06T06:15:40.285Z,14.60
2023-05-06T06:18:16.346Z,14.70
2023-05-06T06:20:51.003Z,14.70
2023-05-06T06:23:24.841Z,14.70
2023-05-06T06:25:57.079Z,14.70
2023-05-06T06:28:29.972Z,14.70
2023-05-06T06:31:05.247Z,14.70
2023-05-06T06:33:41.450Z,14.70
2023-05-06T06:36:19.272Z,14.80
2023-05-06T06:38:51.582Z,14.80
2023-05-06T06:41:25.004Z,14.90
2023-05-06T06:43:57.393Z,14.90
2023-05-06T06:46:29.649Z,14.90
2023-05-06T06:49:05.073Z,14.90
2023-05-06T06:51:38.872Z,14.90
2023-05-06T06:54:12.374Z,14.90
2023-05-06T06:56:47.179Z,15.00
2023-05-06T06:59:19.393Z,15.00
2023-05-06T07:01:52.649Z,15.10
2023-05-06T07:04:28.445Z,15.10
2023-05-06T07:07:01.831Z,15.20
2023-05-06T07:09:35.650Z,15.20
2023-05-06T07:12:10.187Z,15.30
2023-05-06T07:14:42.725Z,15.30
2023-05-06T07:17:15.276Z,15.30
2023-05-06T07:19:51.990Z,15.30
2023-05-06T07:22:24.985Z,15.40
2023-05-06T07:24:57.925Z,15.40
2023-05-06T07:27:31.684Z,15.50
2023-05-06T07:30:05.905Z,15.60
2023-05-06T07:32:39.056Z,15.70
2023-05-06T07:35:15.958Z,15.80
2023-05-06T07:37:49.242Z,15.80
2023-05-06T07:40:22.455Z,15.80
2023-05-06T07:42:57.925Z,15.80
2023-05-06T07:45:30.347Z,15.90
2023-05-06T07:48:03.325Z,15.90
2023-05-06T07:50:40.083Z,15.90
2023-05-06T07:53:12.246Z,15.90
2023-05-06T07:55:45.523Z,15.90
2023-05-06T07:58:20.244Z,15.90
2023-05-06T08:00:55.041Z,15.90
2023-05-06T08:03:27.471Z,15.80
2023-05-06T08:06:02.928Z,15.90
2023-05-06T08:08:36.306Z,15.80
2023-05-06T08:11:10.878Z,15.80
2023-05-06T08:13:43.417Z,15.90
2023-05-06T08:16:18.736Z,15.90
2023-05-06T08:18:52.631Z,15.90
2023-05-06T08:21:31.036Z,16.00
2023-05-06T08:24:05.521Z,16.00
2023-05-06T08:26:38.166Z,16.00
2023-05-06T08:29:11.218Z,16.10
2023-05-06T08:31:46.332Z,16.10
2023-05-06T08:34:22.659Z,16.20
2023-05-06T08:37:00.350Z,16.20
2023-05-06T08:39:33.539Z,16.20
2023-05-06T08:42:07.442Z,16.30
2023-05-06T08:44:43.130Z,16.30
2023-05-06T08:47:17.631Z,16.30
2023-05-06T08:49:52.427Z,16.30
2023-05-06T08:52:31.182Z,16.30
2023-05-06T08:55:06.063Z,16.40
2023-05-06T08:57:40.981Z,16.40
2023-05-06T09:00:16.498Z,16.50
2023-05-06T09:02:52.318Z,16.50
2023-05-06T09:05:26.285Z,16.60
2023-05-06T09:08:01.535Z,16.60
2023-05-06T09:10:43.170Z,16.70
2023-05-06T09:13:23.146Z,16.70
2023-05-06T09:15:56.940Z,16.70
2023-05-06T09:18:29.991Z,16.80
2023-05-06T09:21:05.501Z,16.80
2023-05-06T09:23:41.682Z,16.90
2023-05-06T09:26:14.531Z,16.90
2023-05-06T09:28:47.423Z,17.00
2023-05-06T09:31:20.397Z,17.10
2023-05-06T09:33:55.009Z,17.10
2023-05-06T09:36:28.477Z,17.10
2023-05-06T09:39:05.251Z,17.10
2023-05-06T09:41:38.096Z,17.20
2023-05-06T09:44:11.736Z,17.20
2023-05-06T09:46:46.142Z,17.30
2023-05-06T09:49:20.187Z,17.30
2023-05-06T09:51:53.359Z,17.40
2023-05-06T09:54:28.748Z,17.40
2023-05-06T09:57:03.084Z,17.50
2023-05-06T09:59:36.999Z,17.50
2023-05-06T10:02:11.833Z,17.60
2023-05-06T10:04:47.695Z,17.70
2023-05-06T10:07:29.725Z,17.80
2023-05-06T10:10:10.239Z,17.80
2023-05-06T10:12:45.913Z,17.90
2023-05-06T10:15:18.057Z,18.00
2023-05-06T10:17:53.672Z,18.10
2023-05-06T10:20:27.922Z,18.20
2023-05-06T10:23:10.842Z,18.20
2023-05-06T10:25:49.779Z,18.30
2023-05-06T10:28:28.677Z,18.30
2023-05-06T10:31:09.193Z,18.30
2023-05-06T10:33:45.556Z,18.30
2023-05-06T10:36:22.761Z,18.30
2023-05-06T10:38:57.436Z,18.30
2023-05-06T10:41:37.397Z,18.40
2023-05-06T10:44:10.816Z,18.40
2023-05-06T10:47:02.016Z,18.40
2023-05-06T10:49:34.385Z,18.40
2023-05-06T10:52:15.326Z,18.50
2023-05-06T10:54:49.512Z,18.40
2023-05-06T10:57:27.520Z,18.50
2023-05-06T11:00:00.126Z,18.50
2023-05-06T11:02:33.695Z,18.60
2023-05-06T11:05:07.741Z,18.60
2023-05-06T11:07:41.310Z,18.70
2023-05-06T11:10:15.601Z,18.70
2023-05-06T11:12:53.825Z,18.80
2023-05-06T11:15:28.438Z,18.90
2023-05-06T11:18:21.998Z,19.10
2023-05-06T11:21:37.118Z,19.20
2023-05-06T11:24:13.061Z,19.40
2023-05-06T11:26:47.802Z,19.40
2023-05-06T11:29:23.349Z,19.50
2023-05-06T11:31:56.027Z,19.60
2023-05-06T11:34:30.331Z,19.70
2023-05-06T11:37:05.020Z,19.70
2023-05-06T11:39:40.823Z,19.70
2023-05-06T11:42:14.883Z,19.80
2023-05-06T11:44:50.347Z,19.80
2023-05-06T11:47:24.218Z,19.90
2023-05-06T11:49:57.135Z,20.00
2023-05-06T11:52:32.430Z,20.10
2023-05-06T11:55:10.195Z,20.20
2023-05-06T11:57:45.693Z,20.30
2023-05-06T12:00:21.486Z,20.40
2023-05-06T12:02:57.491Z,20.40
2023-05-06T12:05:29.984Z,20.60
2023-05-06T12:08:03.639Z,20.80
2023-05-06T12:10:39.983Z,21.00
2023-05-06T12:13:16.237Z,21.30
2023-05-06T12:15:55.016Z,21.70
2023-05-06T12:18:28.049Z,22.00
2023-05-06T12:21:08.324Z,22.10
2023-05-06T12:23:51.101Z,22.20
2023-05-06T12:26:23.889Z,22.10
2023-05-06T12:29:08.614Z,22.10
2023-05-06T12:31:47.464Z,22.20
2023-05-06T12:34:38.414Z,22.40
2023-05-06T12:37:10.992Z,22.60
2023-05-06T12:39:44.463Z,22.70
2023-05-06T12:42:21.004Z,22.80
2023-05-06T12:44:53.556Z,22.80
2023-05-06T12:47:28.646Z,22.80
2023-05-06T12:50:02.211Z,22.80
2023-05-06T12:52:44.936Z,22.90
2023-05-06T12:55:17.908Z,22.90
2023-05-06T12:57:52.426Z,23.00
2023-05-06T13:00:25.211Z,23.10
2023-05-06T13:03:01.673Z,23.30
2023-05-06T13:05:33.914Z,23.50
2023-05-06T13:08:07.479Z,23.80
2023-05-06T13:10:40.057Z,24.10
2023-05-06T13:13:13.967Z,24.20
2023-05-06T13:15:47.137Z,24.30
2023-05-06T13:18:23.000Z,24.50
2023-05-06T13:20:55.479Z,24.80
2023-05-06T13:23:27.639Z,25.10
2023-05-06T13:26:05.101Z,25.40
2023-05-06T13:28:40.263Z,25.70
2023-05-06T13:31:13.075Z,26.00
2023-05-06T13:33:48.351Z,26.40
2023-05-06T13:36:21.228Z,26.80
2023-05-06T13:38:54.721Z,27.10
2023-05-06T13:41:27.327Z,27.20
2023-05-06T13:44:00.268Z,27.40
2023-05-06T13:46:33.054Z,27.40
2023-05-06T13:49:07.986Z,27.40
2023-05-06T13:51:41.353Z,27.40
2023-05-06T13:54:14.900Z,27.50
2023-05-06T13:56:47.940Z,27.60
2023-05-06T13:59:20.455Z,27.60
2023-05-06T14:01:56.104Z,27.70
2023-05-06T14:04:31.132Z,27.90
2023-05-06T14:07:04.148Z,28.10
2023-05-06T14:09:36.249Z,28.10
2023-05-06T14:12:09.071Z,28.00
2023-05-06T14:14:41.298Z,27.90
2023-05-06T14:17:13.811Z,27.90
2023-05-06T14:19:48.494Z,28.10
2023-05-06T14:22:21.066Z,28.40
2023-05-06T14:24:53.217Z,28.60
2023-05-06T14:27:28.276Z,28.60
2023-05-06T14:30:03.015Z,28.60
2023-05-06T14:32:36.644Z,28.80
2023-05-06T14:35:12.158Z,29.20
2023-05-06T14:37:46.025Z,29.50
2023-05-06T14:40:18.170Z,29.70
2023-05-06T14:42:50.864Z,29.70
2023-05-06T14:45:22.999Z,29.60
2023-05-06T14:47:55.947Z,29.60
2023-05-06T14:50:31.439Z,29.80
2023-05-06T14:53:04.085Z,29.90
2023-05-06T14:55:36.728Z,30.20
2023-05-06T14:58:10.573Z,30.30
2023-05-06T15:00:44.076Z,30.60
2023-05-06T15:03:17.115Z,30.60
2023-05-06T15:05:52.982Z,30.60
2023-05-06T15:08:26.537Z,30.60
2023-05-06T15:10:58.984Z,30.50
2023-05-06T15:13:31.149Z,30.30
2023-05-06T15:16:04.017Z,30.20
2023-05-06T15:18:38.230Z,30.00
2023-05-06T15:21:14.067Z,30.00
2023-05-06T15:23:48.033Z,29.90
2023-05-06T15:26:20.157Z,29.80
2023-05-06T15:28:53.952Z,29.70
2023-05-06T15:31:26.470Z,29.50
2023-05-06T15:34:00.857Z,29.50
2023-05-06T15:36:36.221Z,29.40
2023-05-06T15:39:11.358Z,29.50
2023-05-06T15:41:45.364Z,29.40
2023-05-06T15:44:20.664Z,29.30
2023-05-06T15:46:53.463Z,29.30
2023-05-06T15:49:49.506Z,29.20
2023-05-06T15:52:23.223Z,29.10
2023-05-06T15:54:59.528Z,29.00
2023-05-06T15:57:32.515Z,28.90
2023-05-06T16:00:08.433Z,28.90
2023-05-06T16:02:42.059Z,28.80
2023-05-06T16:05:15.226Z,28.60
2023-05-06T16:07:52.181Z,28.60
2023-05-06T16:10:25.348Z,28.50
2023-05-06T16:12:58.546Z,28.40
2023-05-06T16:15:31.297Z,28.40
2023-05-06T16:18:04.006Z,28.40
2023-05-06T16:20:36.907Z,28.50
2023-05-06T16:23:15.481Z,28.50
2023-05-06T16:25:47.604Z,28.60
2023-05-06T16:28:21.111Z,28.60
2023-05-06T16:30:54.063Z,28.50
2023-05-06T16:33:27.361Z,28.50
2023-05-06T16:35:59.945Z,28.40
2023-05-06T16:38:35.131Z,28.20
2023-05-06T16:41:08.317Z,28.00
2023-05-06T16:43:41.484Z,27.80
2023-05-06T16:46:15.168Z,27.60
2023-05-06T16:48:47.539Z,27.40
2023-05-06T16:51:20.965Z,27.30
2023-05-06T16:53:56.896Z,27.20
2023-05-06T16:56:43.933Z,27.10
2023-05-06T16:59:23.990Z,27.00
2023-05-06T17:01:56.459Z,26.90
2023-05-06T17:04:29.906Z,26.80
2023-05-06T17:07:02.544Z,26.80
2023-05-06T17:09:39.000Z,26.70
2023-05-06T17:12:12.128Z,26.60
2023-05-06T17:14:46.476Z,26.50
2023-05-06T17:17:21.711Z,26.40
2023-05-06T17:19:54.743Z,26.30
2023-05-06T17:22:27.593Z,26.30
2023-05-06T17:25:02.381Z,26.10
2023-05-06T17:27:35.440Z,26.00
2023-05-06T17:30:12.975Z,25.90
2023-05-06T17:32:46.390Z,25.80
2023-05-06T17:35:21.150Z,25.60
2023-05-06T17:37:56.010Z,25.50
2023-05-06T17:40:32.216Z,25.40
2023-05-06T17:43:05.569Z,25.30
2023-05-06T17:45:40.889Z,25.20
2023-05-06T17:48:14.338Z,25.10
2023-05-06T17:50:48.258Z,25.00
2023-05-06T17:53:20.998Z,24.90
2023-05-06T17:55:55.692Z,24.80
2023-05-06T17:58:29.890Z,24.70
2023-05-06T18:01:03.530Z,24.60
2023-05-06T18:03:36.926Z,24.50
2023-05-06T18:06:10.295Z,24.30
2023-05-06T18:08:42.492Z,24.30
2023-05-06T18:11:19.203Z,24.10
2023-05-06T18:13:55.270Z,24.00
2023-05-06T18:16:27.447Z,23.90
2023-05-06T18:19:03.396Z,23.70
2023-05-06T18:21:36.982Z,23.60
2023-05-06T18:24:15.985Z,23.50
2023-05-06T18:26:54.216Z,23.30
2023-05-06T18:29:28.606Z,23.20
2023-05-06T18:32:02.623Z,23.00
2023-05-06T18:34:35.386Z,22.90
2023-05-06T18:37:08.392Z,22.80
2023-05-06T18:39:43.707Z,22.60
2023-05-06T18:42:22.441Z,22.40
2023-05-06T18:44:56.692Z,22.20
2023-05-06T18:47:29.547Z,22.00
2023-05-06T18:50:02.855Z,21.80
2023-05-06T18:52:39.439Z,21.70
2023-05-06T18:55:12.772Z,21.60
2023-05-06T18:57:49.083Z,21.40
2023-05-06T19:00:23.115Z,21.30
2023-05-06T19:02:56.649Z,21.20
2023-05-06T19:05:29.215Z,21.10
2023-05-06T19:08:02.579Z,21.00
2023-05-06T19:10:36.215Z,20.90
2023-05-06T19:13:11.451Z,20.80
2023-05-06T19:15:45.518Z,20.70
2023-05-06T19:18:20.233Z,20.80
2023-05-06T19:20:56.059Z,21.00
2023-05-06T19:23:29.983Z,21.30
2023-05-06T19:26:04.394Z,21.60
2023-05-06T19:28:44.324Z,21.80
2023-05-06T19:31:22.061Z,22.00
2023-05-06T19:33:55.400Z,22.20
2023-05-06T19:36:29.391Z,22.40
2023-05-06T19:39:02.433Z,22.50
2023-05-06T19:41:35.216Z,22.60
2023-05-06T19:44:10.032Z,22.70
2023-05-06T19:46:42.931Z,22.90
2023-05-06T19:49:15.964Z,23.00
2023-05-06T19:51:48.870Z,23.10
2023-05-06T19:54:23.130Z,23.10
2023-05-06T19:56:56.164Z,23.20
2023-05-06T19:59:33.247Z,23.30
2023-05-06T20:02:06.924Z,23.40
2023-05-06T20:04:41.817Z,23.40
2023-05-06T20:07:18.044Z,23.40
2023-05-06T20:09:56.582Z,23.40
2023-05-06T20:12:30.451Z,23.50
2023-05-06T20:15:07.227Z,23.50
2023-05-06T20:17:40.652Z,23.50
2023-05-06T20:20:14.163Z,23.50
2023-05-06T20:22:46.979Z,23.50
2023-05-06T20:25:22.716Z,23.50
2023-05-06T20:27:57.500Z,23.40
2023-05-06T20:30:34.388Z,23.30
2023-05-06T20:33:07.083Z,23.20
2023-05-06T20:35:40.699Z,23.20
2023-05-06T20:38:17.056Z,23.20
2023-05-06T20:40:50.031Z,23.20
2023-05-06T20:43:23.423Z,23.20
2023-05-06T20:45:58.116Z,23.10
2023-05-06T20:48:32.105Z,23.00
2023-05-06T20:51:05.144Z,22.90
2023-05-06T20:53:39.347Z,22.80
2023-05-06T20:56:28.879Z,22.80
2023-05-06T20:59:07.079Z,22.80
2023-05-06T21:02:12.533Z,22.80
2023-05-06T21:04:46.858Z,22.70
2023-05-06T21:07:21.518Z,22.70
2023-05-06T21:09:59.331Z,22.60
2023-05-06T21:12:36.551Z,22.50
2023-05-06T21:15:11.409Z,22.40
2023-05-06T21:17:46.961Z,22.30
2023-05-06T21:20:20.282Z,22.20
2023-05-06T21:22:55.741Z,22.30
2023-05-06T21:25:39.140Z,22.30
2023-05-06T21:28:16.321Z,22.30
2023-05-06T21:30:56.717Z,22.30
2023-05-06T21:33:38.289Z,22.40
2023-05-06T21:36:11.412Z,22.30
2023-05-06T21:38:54.538Z,22.30
2023-05-06T21:41:29.780Z,22.30
2023-05-06T21:44:03.204Z,22.30
2023-05-06T21:46:38.813Z,22.20
2023-05-06T21:49:13.946Z,22.30
2023-05-06T21:51:47.647Z,22.30
2023-05-06T21:54:20.164Z,22.20
2023-05-06T21:56:53.293Z,22.20
2023-05-06T21:59:26.511Z,22.10
2023-05-06T22:02:00.124Z,22.00
2023-05-06T22:04:38.604Z,22.00
2023-05-06T22:07:13.134Z,21.90
2023-05-06T22:09:47.189Z,21.90
2023-05-06T22:12:20.111Z,21.90
2023-05-06T22:14:55.097Z,21.90
2023-05-06T22:17:28.153Z,21.70
2023-05-06T22:20:05.092Z,21.70
2023-05-06T22:22:39.601Z,21.60
2023-05-06T22:25:15.223Z,21.50
2023-05-06T22:27:48.414Z,21.50
2023-05-06T22:30:21.277Z,21.50
2023-05-06T22:32:54.724Z,21.50
2023-05-06T22:35:30.094Z,21.50
2023-05-06T22:38:03.085Z,21.50
2023-05-06T22:40:37.602Z,21.50
2023-05-06T22:43:10.467Z,21.50
2023-05-06T22:45:43.410Z,21.40
2023-05-06T22:48:18.057Z,21.40
2023-05-06T22:50:53.374Z,21.40
2023-05-06T22:53:26.253Z,21.40
2023-05-06T22:56:00.089Z,21.40
2023-05-06T22:58:33.106Z,21.40
2023-05-06T23:01:08.189Z,21.50
2023-05-06T23:03:41.175Z,21.50
2023-05-06T23:06:15.976Z,21.40
2023-05-06T23:08:48.143Z,21.40
2023-05-06T23:11:20.876Z,21.40
2023-05-06T23:13:53.983Z,21.30
2023-05-06T23:16:30.144Z,21.30
2023-05-06T23:19:03.370Z,21.40
2023-05-06T23:21:38.144Z,21.30
2023-05-06T23:24:10.435Z,21.30
2023-05-06T23:26:42.542Z,21.30
2023-05-06T23:29:16.245Z,21.20
2023-05-06T23:31:48.433Z,21.20
2023-05-06T23:34:21.332Z,21.20
2023-05-06T23:36:58.051Z,21.20
2023-05-06T23:39:30.155Z,21.30
2023-05-06T23:42:04.345Z,21.30
2023-05-06T23:44:37.172Z,21.30
2023-05-06T23:47:09.995Z,21.30
2023-05-06T23:49:43.522Z,21.20
2023-05-06T23:52:19.365Z,21.10
2023-05-06T23:54:53.159Z,20.90
2023-05-06T23:57:26.649Z,20.60
2023-05-06T23:59:59.383Z,20.30
